createdAt,value
2022-07-27T00:01:14.235Z,12.03
2022-07-27T00:03:43.277Z,12.70
2022-07-27T00:06:11.095Z,13.13
2022-07-27T00:08:38.636Z,12.10
2022-07-27T00:11:06.125Z,12.77
2022-07-27T00:13:33.503Z,12.47
2022-07-27T00:16:00.950Z,12.20
2022-07-27T00:18:28.297Z,12.17
2022-07-27T00:20:55.901Z,12.90
2022-07-27T00:23:23.159Z,12.93
2022-07-27T00:25:50.596Z,12.43
2022-07-27T00:28:17.907Z,12.97
2022-07-27T00:30:45.374Z,12.20
2022-07-27T00:33:16.875Z,12.47
2022-07-27T00:35:45.125Z,12.03
2022-07-27T00:38:12.432Z,12.87
2022-07-27T00:40:40.039Z,12.80
2022-07-27T00:43:07.585Z,12.17
2022-07-27T00:45:34.980Z,11.93
2022-07-27T00:48:02.310Z,12.33
2022-07-27T00:50:29.670Z,12.27
2022-07-27T00:52:56.980Z,11.63
2022-07-27T00:55:25.349Z,13.77
2022-07-27T00:57:53.301Z,12.13
2022-07-27T01:00:28.764Z,13.27
2022-07-27T01:02:57.414Z,11.80
2022-07-27T01:05:36.172Z,11.77
2022-07-27T01:08:05.641Z,12.13
2022-07-27T01:10:34.099Z,12.53
2022-07-27T01:13:02.174Z,12.07
2022-07-27T01:15:29.967Z,11.57
2022-07-27T01:17:59.221Z,12.03
2022-07-27T01:20:26.784Z,11.53
2022-07-27T01:22:54.384Z,11.50
2022-07-27T01:25:21.659Z,11.50
2022-07-27T01:27:49.140Z,11.57
2022-07-27T01:30:30.446Z,11.97
2022-07-27T01:33:06.772Z,11.73
2022-07-27T01:35:35.063Z,11.23
2022-07-27T01:38:03.153Z,11.57
2022-07-27T01:40:30.790Z,11.83
2022-07-27T01:42:58.116Z,11.57
2022-07-27T01:45:25.616Z,11.80
2022-07-27T01:47:53.157Z,11.27
2022-07-27T01:50:20.711Z,9.73
2022-07-27T01:52:48.666Z,11.43
2022-07-27T01:55:16.001Z,10.70
2022-07-27T01:57:43.297Z,11.17
2022-07-27T02:00:12.326Z,10.63
2022-07-27T02:02:40.204Z,11.20
2022-07-27T02:05:08.688Z,10.47
2022-07-27T02:07:36.128Z,10.70
2022-07-27T02:10:03.808Z,10.47
2022-07-27T02:12:37.516Z,10.43
2022-07-27T02:15:17.108Z,10.73
2022-07-27T02:17:47.549Z,9.93
2022-07-27T02:20:18.695Z,10.07
2022-07-27T02:22:47.166Z,9.40
2022-07-27T02:25:16.892Z,10.27
2022-07-27T02:27:44.852Z,9.60
2022-07-27T02:30:13.577Z,12.10
2022-07-27T02:32:44.119Z,11.10
2022-07-27T02:35:19.070Z,12.40
2022-07-27T02:37:48.973Z,11.50
2022-07-27T02:40:17.595Z,11.47
2022-07-27T02:42:48.744Z,11.23
2022-07-27T02:45:16.233Z,10.37
2022-07-27T02:47:44.495Z,9.97
2022-07-27T02:50:12.722Z,9.47
2022-07-27T02:52:40.229Z,9.50
2022-07-27T02:55:08.458Z,9.60
2022-07-27T02:57:37.909Z,9.43
2022-07-27T03:00:08.431Z,9.83
2022-07-27T03:02:36.530Z,9.40
2022-07-27T03:05:05.742Z,8.93
2022-07-27T03:07:33.220Z,9.10
2022-07-27T03:10:00.484Z,9.80
2022-07-27T03:12:27.939Z,9.83
2022-07-27T03:14:56.357Z,9.40
2022-07-27T03:17:23.805Z,8.03
2022-07-27T03:19:51.119Z,9.13
2022-07-27T03:22:18.392Z,9.20
2022-07-27T03:24:46.490Z,9.20
2022-07-27T03:27:13.876Z,8.90
2022-07-27T03:29:41.261Z,8.73
2022-07-27T03:32:08.620Z,9.10
2022-07-27T03:34:35.868Z,9.10
2022-07-27T03:37:03.327Z,9.30
2022-07-27T03:39:30.821Z,9.23
2022-07-27T03:41:58.315Z,9.27
2022-07-27T03:44:25.640Z,8.80
2022-07-27T03:46:53.031Z,9.77
2022-07-27T03:49:20.482Z,8.80
2022-07-27T03:51:47.812Z,9.47
2022-07-27T03:54:15.337Z,9.37
2022-07-27T03:56:42.761Z,8.57
2022-07-27T03:59:10.326Z,9.57
2022-07-27T04:01:37.969Z,9.13
2022-07-27T04:04:05.617Z,8.03
2022-07-27T04:06:32.884Z,8.60
2022-07-27T04:09:08.701Z,9.17
2022-07-27T04:11:37.721Z,8.83
2022-07-27T04:14:12.840Z,8.80
2022-07-27T04:16:41.480Z,8.83
2022-07-27T04:19:09.123Z,8.10
2022-07-27T04:21:36.550Z,8.93
2022-07-27T04:24:04.610Z,8.77
2022-07-27T04:26:31.904Z,8.47
2022-07-27T04:28:59.213Z,8.40
2022-07-27T04:31:26.860Z,8.37
2022-07-27T04:33:54.301Z,7.20
2022-07-27T04:36:21.603Z,7.17
2022-07-27T04:38:49.087Z,7.20
2022-07-27T04:41:16.330Z,7.13
2022-07-27T04:43:43.600Z,6.70
2022-07-27T04:46:15.338Z,7.67
2022-07-27T04:48:49.256Z,6.87
2022-07-27T04:51:17.987Z,6.53
2022-07-27T04:53:53.383Z,6.37
2022-07-27T04:56:26.672Z,6.57
2022-07-27T04:58:54.765Z,5.93
2022-07-27T05:01:23.274Z,6.40
2022-07-27T05:03:51.060Z,6.00
2022-07-27T05:06:18.929Z,5.90
2022-07-27T05:08:46.343Z,5.73
2022-07-27T05:11:13.606Z,6.57
2022-07-27T05:13:41.044Z,5.80
2022-07-27T05:16:10.279Z,6.17
2022-07-27T05:18:40.602Z,5.87
2022-07-27T05:21:09.669Z,5.37
2022-07-27T05:23:37.038Z,5.77
2022-07-27T05:26:04.690Z,5.37
2022-07-27T05:28:32.445Z,5.30
2022-07-27T05:31:00.196Z,4.80
2022-07-27T05:33:27.820Z,4.57
2022-07-27T05:35:58.245Z,4.60
2022-07-27T05:38:25.540Z,5.03
2022-07-27T05:40:53.289Z,5.00
2022-07-27T05:43:20.726Z,5.20
2022-07-27T05:45:48.165Z,5.47
2022-07-27T05:48:15.527Z,4.97
2022-07-27T05:50:43.865Z,4.47
2022-07-27T05:53:11.622Z,4.50
2022-07-27T05:55:39.041Z,4.83
2022-07-27T05:58:25.973Z,4.47
2022-07-27T06:00:53.947Z,4.57
2022-07-27T06:03:21.729Z,4.30
2022-07-27T06:05:49.227Z,4.47
2022-07-27T06:08:16.487Z,4.80
2022-07-27T06:10:43.955Z,4.30
2022-07-27T06:13:12.035Z,4.50
2022-07-27T06:15:40.341Z,4.33
2022-07-27T06:18:13.850Z,3.90
2022-07-27T06:20:43.179Z,3.80
2022-07-27T06:23:11.202Z,4.07
2022-07-27T06:25:38.514Z,3.70
2022-07-27T06:28:06.609Z,4.00
2022-07-27T06:30:34.494Z,4.03
2022-07-27T06:33:04.995Z,4.20
2022-07-27T06:35:34.078Z,3.63
2022-07-27T06:38:02.012Z,4.00
2022-07-27T06:40:30.101Z,4.20
2022-07-27T06:42:58.622Z,3.83
2022-07-27T06:45:27.056Z,4.00
2022-07-27T06:47:54.483Z,3.80
2022-07-27T06:50:22.339Z,4.30
2022-07-27T06:52:50.021Z,3.93
2022-07-27T06:55:17.821Z,3.60
2022-07-27T06:57:46.377Z,3.27
2022-07-27T07:00:15.076Z,4.10
2022-07-27T07:03:00.348Z,3.70
2022-07-27T07:05:27.771Z,3.80
2022-07-27T07:07:55.815Z,3.53
2022-07-27T07:10:24.981Z,3.73
2022-07-27T07:12:57.108Z,3.60
2022-07-27T07:15:27.530Z,3.60
2022-07-27T07:17:54.875Z,3.87
2022-07-27T07:20:22.823Z,4.20
2022-07-27T07:22:50.509Z,3.87
2022-07-27T07:25:18.117Z,4.73
2022-07-27T07:27:45.519Z,4.17
2022-07-27T07:30:13.124Z,4.33
2022-07-27T07:32:40.473Z,5.60
2022-07-27T07:35:08.497Z,4.73
2022-07-27T07:37:35.936Z,5.30
2022-07-27T07:40:25.232Z,6.20
2022-07-27T07:42:53.596Z,6.33
2022-07-27T07:45:22.689Z,5.90
2022-07-27T07:47:50.365Z,6.07
2022-07-27T07:50:19.081Z,5.93
2022-07-27T07:52:48.649Z,5.43
2022-07-27T07:55:19.154Z,5.67
2022-07-27T07:57:46.891Z,6.20
2022-07-27T08:00:14.859Z,7.00
2022-07-27T08:02:46.267Z,7.17
2022-07-27T08:05:15.640Z,6.03
2022-07-27T08:07:44.371Z,6.17
2022-07-27T08:10:14.941Z,5.83
2022-07-27T08:12:46.542Z,6.67
2022-07-27T08:15:15.376Z,7.57
2022-07-27T08:17:43.544Z,7.40
2022-07-27T08:20:12.576Z,6.43
2022-07-27T08:22:40.486Z,6.80
2022-07-27T08:25:09.452Z,5.87
2022-07-27T08:27:40.651Z,6.80
2022-07-27T08:30:11.603Z,6.27
2022-07-27T08:32:53.216Z,6.20
2022-07-27T08:35:21.662Z,7.20
2022-07-27T08:37:49.238Z,6.83
2022-07-27T08:43:06.495Z,5.97
2022-07-27T08:45:34.747Z,7.43
2022-07-27T08:48:03.142Z,6.73
2022-07-27T08:50:30.995Z,7.25
2022-07-27T08:53:04.989Z,7.03
2022-07-27T08:55:34.665Z,7.93
2022-07-27T08:58:03.714Z,7.33
2022-07-27T09:00:32.716Z,6.63
2022-07-27T09:03:00.769Z,7.00
2022-07-27T09:05:37.503Z,6.97
2022-07-27T09:08:16.864Z,7.53
2022-07-27T09:10:45.043Z,7.82
2022-07-27T09:13:33.263Z,7.78
2022-07-27T09:16:21.657Z,8.23
2022-07-27T09:18:57.989Z,7.50
2022-07-27T09:21:25.923Z,7.05
2022-07-27T09:24:17.817Z,7.28
2022-07-27T09:27:03.849Z,6.88
2022-07-27T09:29:36.489Z,7.30
2022-07-27T09:32:15.525Z,6.40
2022-07-27T09:34:43.173Z,7.68
2022-07-27T09:37:12.297Z,8.05
2022-07-27T09:39:39.842Z,7.82
2022-07-27T09:42:47.795Z,7.53
2022-07-27T09:45:04.009Z,7.28
2022-07-27T09:47:31.502Z,7.03
2022-07-27T09:50:20.183Z,7.65
2022-07-27T09:52:48.119Z,6.60
2022-07-27T09:55:21.175Z,8.48
2022-07-27T09:57:56.925Z,7.28
2022-07-27T10:00:25.970Z,6.63
2022-07-27T10:02:55.093Z,7.22
2022-07-27T10:05:23.415Z,7.45
2022-07-27T10:07:53.652Z,7.53
2022-07-27T10:10:22.245Z,6.53
2022-07-27T10:12:54.780Z,6.15
2022-07-27T10:15:24.464Z,6.32
2022-07-27T10:18:06.883Z,6.03
2022-07-27T10:20:38.517Z,5.85
2022-07-27T10:23:07.523Z,5.63
2022-07-27T10:25:38.211Z,6.43
2022-07-27T10:28:17.787Z,6.88
2022-07-27T10:30:48.306Z,6.18
2022-07-27T10:33:50.543Z,6.78
2022-07-27T10:36:20.317Z,7.05
2022-07-27T10:38:53.218Z,6.05
2022-07-27T10:41:35.933Z,6.43
2022-07-27T10:44:18.036Z,6.03
2022-07-27T10:46:50.920Z,6.47
2022-07-27T10:49:29.893Z,5.68
2022-07-27T10:51:59.385Z,7.07
2022-07-27T10:54:39.758Z,6.65
2022-07-27T10:57:09.290Z,7.13
2022-07-27T11:00:06.938Z,6.27
2022-07-27T11:02:42.362Z,6.30
2022-07-27T11:05:53.780Z,5.70
2022-07-27T11:10:48.476Z,6.20
2022-07-27T11:13:20.722Z,5.90
2022-07-27T11:18:54.827Z,5.47
2022-07-27T11:21:36.918Z,5.10
2022-07-27T11:24:12.083Z,4.47
2022-07-27T11:26:45.902Z,5.32
2022-07-27T11:29:16.067Z,4.60
2022-07-27T11:31:55.421Z,4.50
2022-07-27T11:34:28.987Z,4.78
2022-07-27T11:36:58.515Z,5.30
2022-07-27T11:39:59.389Z,4.57
2022-07-27T11:42:21.107Z,4.37
2022-07-27T11:44:49.184Z,5.00
2022-07-27T11:47:19.301Z,5.87
2022-07-27T11:49:47.382Z,5.43
2022-07-27T11:52:17.907Z,5.07
2022-07-27T11:54:51.760Z,4.50
2022-07-27T11:57:20.510Z,4.70
2022-07-27T11:59:47.850Z,4.00
2022-07-27T12:02:18.393Z,4.60
2022-07-27T12:04:48.626Z,4.97
2022-07-27T12:07:19.613Z,6.20
2022-07-27T12:09:51.024Z,2.70
2022-07-27T12:12:25.903Z,2.00
2022-07-27T12:14:58.377Z,2.00
2022-07-27T12:17:37.306Z,1.70
2022-07-27T12:20:16.324Z,1.60
2022-07-27T12:22:54.703Z,1.60
2022-07-27T12:25:22.199Z,1.73
2022-07-27T12:28:05.727Z,1.83
2022-07-27T12:30:37.297Z,1.60
2022-07-27T12:33:07.676Z,1.43
2022-07-27T12:35:47.249Z,1.40
2022-07-27T12:38:14.908Z,1.63
2022-07-27T12:40:46.849Z,1.50
2022-07-27T12:43:19.802Z,1.60
2022-07-27T12:45:49.280Z,1.90
2022-07-27T12:48:18.159Z,1.50
2022-07-27T12:50:48.785Z,1.37
2022-07-27T12:53:17.301Z,1.90
2022-07-27T12:55:45.113Z,1.70
2022-07-27T12:58:14.322Z,1.50
2022-07-27T13:00:43.335Z,1.80
2022-07-27T13:03:10.704Z,1.80
2022-07-27T13:05:38.024Z,1.77
2022-07-27T13:08:06.175Z,1.80
2022-07-27T13:10:34.333Z,1.80
2022-07-27T13:13:02.800Z,1.70
2022-07-27T13:15:30.492Z,1.90
2022-07-27T13:17:58.024Z,2.10
2022-07-27T13:20:25.530Z,1.83
2022-07-27T13:22:53.701Z,1.80
2022-07-27T13:25:21.834Z,1.60
2022-07-27T13:27:49.678Z,1.77
2022-07-27T13:30:18.817Z,2.07
2022-07-27T13:32:47.015Z,1.80
2022-07-27T13:35:15.050Z,2.10
2022-07-27T13:37:43.508Z,2.00
2022-07-27T13:40:11.487Z,2.20
2022-07-27T13:42:39.432Z,2.50
2022-07-27T13:45:10.825Z,2.20
2022-07-27T13:47:40.575Z,2.80
2022-07-27T13:50:17.091Z,2.40
2022-07-27T13:52:47.565Z,2.67
2022-07-27T13:55:16.964Z,3.33
2022-07-27T13:57:44.817Z,2.97
2022-07-27T14:00:13.037Z,3.87
2022-07-27T14:02:41.897Z,3.80
2022-07-27T14:05:12.873Z,4.03
2022-07-27T14:07:40.300Z,4.00
2022-07-27T14:10:26.854Z,3.70
2022-07-27T14:12:58.945Z,3.73
2022-07-27T14:15:27.216Z,4.07
2022-07-27T14:17:54.555Z,4.47
2022-07-27T14:20:22.059Z,4.60
2022-07-27T14:22:49.342Z,4.80
2022-07-27T14:25:16.903Z,4.80
2022-07-27T14:27:44.363Z,4.30
2022-07-27T14:30:15.076Z,3.93
2022-07-27T14:32:45.113Z,4.37
2022-07-27T14:35:12.830Z,3.80
2022-07-27T14:37:40.200Z,3.73
2022-07-27T14:40:08.329Z,3.77
2022-07-27T14:42:35.723Z,3.20
2022-07-27T14:45:04.238Z,4.20
2022-07-27T14:47:31.537Z,3.30
2022-07-27T14:49:58.867Z,3.20
2022-07-27T14:52:26.336Z,3.30
2022-07-27T14:54:59.835Z,2.73
2022-07-27T14:57:27.909Z,2.80
2022-07-27T14:59:55.236Z,2.83
2022-07-27T15:02:22.988Z,2.40
2022-07-27T15:04:50.368Z,2.70
2022-07-27T15:07:17.707Z,2.60
2022-07-27T15:09:44.997Z,2.70
2022-07-27T15:12:12.436Z,2.90
2022-07-27T15:14:40.204Z,2.50
2022-07-27T15:17:07.622Z,2.47
2022-07-27T15:19:34.931Z,2.83
2022-07-27T15:22:02.226Z,2.47
2022-07-27T15:24:31.846Z,2.60
2022-07-27T15:27:02.437Z,2.40
2022-07-27T15:29:29.773Z,2.50
2022-07-27T15:31:57.185Z,2.17
2022-07-27T15:34:24.482Z,2.33
2022-07-27T15:36:52.412Z,2.70
2022-07-27T15:39:21.536Z,2.70
2022-07-27T15:41:49.576Z,2.27
2022-07-27T15:44:21.922Z,2.33
2022-07-27T15:46:49.340Z,2.80
2022-07-27T15:49:17.549Z,2.60
2022-07-27T15:51:46.888Z,2.40
2022-07-27T15:54:15.367Z,2.83
2022-07-27T15:56:43.453Z,2.40
2022-07-27T15:59:11.102Z,2.90
2022-07-27T16:01:38.678Z,2.43
2022-07-27T16:04:06.494Z,2.53
2022-07-27T16:06:38.878Z,2.80
2022-07-27T16:09:09.148Z,2.67
2022-07-27T16:11:37.496Z,2.97
2022-07-27T16:14:04.853Z,3.13
2022-07-27T16:16:32.414Z,2.97
2022-07-27T16:19:12.653Z,3.00
2022-07-27T16:21:55.037Z,3.63
2022-07-27T16:24:25.137Z,3.13
2022-07-27T16:26:52.519Z,2.93
2022-07-27T16:29:20.077Z,2.90
2022-07-27T16:31:47.439Z,4.80
2022-07-27T16:34:14.837Z,3.10
2022-07-27T16:36:42.253Z,2.70
2022-07-27T16:39:10.059Z,2.87
2022-07-27T16:41:37.689Z,2.70
2022-07-27T16:44:05.389Z,3.23
2022-07-27T16:46:32.858Z,2.60
2022-07-27T16:49:00.539Z,2.70
2022-07-27T16:51:27.909Z,2.90
2022-07-27T16:53:55.326Z,2.67
2022-07-27T16:56:22.728Z,2.77
2022-07-27T16:58:50.246Z,2.90
2022-07-27T17:01:26.058Z,2.93
2022-07-27T17:03:56.245Z,2.90
2022-07-27T17:06:24.640Z,3.33
2022-07-27T17:08:52.223Z,3.67
2022-07-27T17:11:21.510Z,3.13
2022-07-27T17:13:50.657Z,3.37
2022-07-27T17:16:18.603Z,3.23
2022-07-27T17:18:46.201Z,3.10
2022-07-27T17:21:13.814Z,3.20
2022-07-27T17:23:42.593Z,3.30
2022-07-27T17:26:13.107Z,3.33
2022-07-27T17:28:41.236Z,3.13
2022-07-27T17:31:12.272Z,3.30
2022-07-27T17:33:40.446Z,3.30
2022-07-27T17:36:14.725Z,3.10
2022-07-27T17:38:44.532Z,3.17
2022-07-27T17:41:13.596Z,2.80
2022-07-27T17:43:41.016Z,3.60
2022-07-27T17:46:10.400Z,3.40
2022-07-27T17:48:39.062Z,3.77
2022-07-27T17:51:08.155Z,3.20
2022-07-27T17:53:35.813Z,3.40
2022-07-27T17:56:04.723Z,3.60
2022-07-27T17:58:32.182Z,3.60
2022-07-27T18:01:00.016Z,3.53
2022-07-27T18:03:27.421Z,3.40
2022-07-27T18:05:55.294Z,3.37
2022-07-27T18:08:22.581Z,3.37
2022-07-27T18:10:51.615Z,3.50
2022-07-27T18:13:19.247Z,3.30
2022-07-27T18:15:54.666Z,3.63
2022-07-27T18:18:25.571Z,3.47
2022-07-27T18:20:55.280Z,3.47
2022-07-27T18:23:26.128Z,3.60
2022-07-27T18:25:53.877Z,3.93
2022-07-27T18:28:21.269Z,3.90
2022-07-27T18:30:50.409Z,3.90
2022-07-27T18:33:18.681Z,3.27
2022-07-27T18:35:46.998Z,3.70
2022-07-27T18:38:15.103Z,3.90
2022-07-27T18:40:46.080Z,3.97
2022-07-27T18:43:14.638Z,4.20
2022-07-27T18:45:42.433Z,3.83
2022-07-27T18:48:10.271Z,4.00
2022-07-27T18:50:39.842Z,4.50
2022-07-27T18:53:08.807Z,4.00
2022-07-27T18:55:36.835Z,3.87
2022-07-27T18:58:04.913Z,3.30
2022-07-27T19:00:33.430Z,4.00
2022-07-27T19:03:00.987Z,3.93
2022-07-27T19:05:40.652Z,4.03
2022-07-27T19:08:13.179Z,3.93
2022-07-27T19:10:42.483Z,4.03
2022-07-27T19:13:11.331Z,3.63
2022-07-27T19:15:42.517Z,3.80
2022-07-27T19:18:11.456Z,3.80
2022-07-27T19:20:38.870Z,4.03
2022-07-27T19:23:06.872Z,4.70
2022-07-27T19:25:34.765Z,4.90
2022-07-27T19:28:03.899Z,4.90
2022-07-27T19:30:31.513Z,4.23
2022-07-27T19:32:59.374Z,4.90
2022-07-27T19:35:26.956Z,4.40
2022-07-27T19:37:54.333Z,4.17
2022-07-27T19:43:09.232Z,4.47
2022-07-27T19:45:36.686Z,4.40
2022-07-27T19:48:05.664Z,4.30
2022-07-27T19:50:33.443Z,4.53
2022-07-27T19:53:01.811Z,4.50
2022-07-27T19:55:29.497Z,4.40
2022-07-27T19:57:56.894Z,4.47
2022-07-27T20:00:24.391Z,3.60
2022-07-27T20:02:52.037Z,3.90
2022-07-27T20:05:19.474Z,4.33
2022-07-27T20:07:46.749Z,4.37
2022-07-27T20:10:14.516Z,3.93
2022-07-27T20:12:41.804Z,4.47
2022-07-27T20:15:09.631Z,4.50
2022-07-27T20:17:37.693Z,4.17
2022-07-27T20:20:08.860Z,4.43
2022-07-27T20:22:36.647Z,4.70
2022-07-27T20:25:04.711Z,4.67
2022-07-27T20:27:32.635Z,4.10
2022-07-27T20:30:00.028Z,4.00
2022-07-27T20:32:27.566Z,4.33
2022-07-27T20:34:55.215Z,4.67
2022-07-27T20:37:22.620Z,4.33
2022-07-27T20:39:51.676Z,4.27
2022-07-27T20:42:19.323Z,4.70
2022-07-27T20:44:46.763Z,4.30
2022-07-27T20:47:15.099Z,4.47
2022-07-27T20:49:42.494Z,4.50
2022-07-27T20:52:09.866Z,4.20
2022-07-27T20:54:38.303Z,3.60
2022-07-27T20:57:05.707Z,4.10
2022-07-27T20:59:33.234Z,4.03
2022-07-27T21:02:01.557Z,4.00
2022-07-27T21:04:28.915Z,3.70
2022-07-27T21:06:56.375Z,3.63
2022-07-27T21:09:25.183Z,3.70
2022-07-27T21:11:53.697Z,4.00
2022-07-27T21:14:20.959Z,3.97
2022-07-27T21:16:48.482Z,3.57
2022-07-27T21:19:16.864Z,3.83
2022-07-27T21:21:44.562Z,3.60
2022-07-27T21:24:18.644Z,3.90
2022-07-27T21:26:48.979Z,3.50
2022-07-27T21:29:17.382Z,4.30
2022-07-27T21:31:46.640Z,4.00
2022-07-27T21:34:17.812Z,3.50
2022-07-27T21:36:46.049Z,4.00
2022-07-27T21:39:13.539Z,3.60
2022-07-27T21:41:41.088Z,3.57
2022-07-27T21:44:08.538Z,3.73
2022-07-27T21:46:36.035Z,3.80
2022-07-27T21:49:04.212Z,4.00
2022-07-27T21:51:31.534Z,4.10
2022-07-27T21:53:59.078Z,3.37
2022-07-27T21:56:26.653Z,4.03
2022-07-27T21:58:53.995Z,3.87
2022-07-27T22:01:22.044Z,4.27
2022-07-27T22:03:49.697Z,4.23
2022-07-27T22:06:17.617Z,4.23
2022-07-27T22:08:46.540Z,3.97
2022-07-27T22:11:14.385Z,3.90
2022-07-27T22:13:41.804Z,3.80
2022-07-27T22:16:09.503Z,4.17
2022-07-27T22:18:37.111Z,4.17
2022-07-27T22:21:04.800Z,4.10
2022-07-27T22:23:32.232Z,4.97
2022-07-27T22:25:59.790Z,4.93
2022-07-27T22:28:27.078Z,5.20
2022-07-27T22:31:00.138Z,5.03
2022-07-27T22:33:44.242Z,5.20
2022-07-27T22:36:12.316Z,4.60
2022-07-27T22:38:39.814Z,4.80
2022-07-27T22:41:07.933Z,5.03
2022-07-27T22:43:35.689Z,4.73
2022-07-27T22:46:04.601Z,5.40
2022-07-27T22:48:32.589Z,4.90
2022-07-27T22:50:59.947Z,4.77
2022-07-27T22:53:27.359Z,4.83
2022-07-27T22:55:54.747Z,4.67
2022-07-27T22:58:22.572Z,5.03
2022-07-27T23:00:49.947Z,5.17
2022-07-27T23:03:17.377Z,4.83
2022-07-27T23:05:44.752Z,4.43
2022-07-27T23:08:12.372Z,4.50
2022-07-27T23:10:48.420Z,5.00
2022-07-27T23:13:17.292Z,4.90
2022-07-27T23:15:46.107Z,5.00
2022-07-27T23:18:14.312Z,5.00
2022-07-27T23:20:42.138Z,5.10
2022-07-27T23:23:16.383Z,5.17
2022-07-27T23:25:49.057Z,5.00
2022-07-27T23:28:18.181Z,5.50
2022-07-27T23:30:45.687Z,5.27
2022-07-27T23:33:12.983Z,5.60
2022-07-27T23:35:40.270Z,5.60
2022-07-27T23:38:07.665Z,5.27
2022-07-27T23:40:35.427Z,5.07
2022-07-27T23:43:02.808Z,5.40
2022-07-27T23:45:30.180Z,5.63
2022-07-27T23:47:57.586Z,5.47
2022-07-27T23:50:25.146Z,5.37
2022-07-27T23:52:52.778Z,5.50
2022-07-27T23:55:20.106Z,5.87
2022-07-27T23:57:47.529Z,5.50
